Date,TemperatureHighF,TemperatureAvgF,TemperatureLowF,DewpointHighF,DewpointAvgF,DewpointLowF,HumidityHigh,HumidityAvg,HumidityLow,PressureMaxIn,PressureMinIn,WindSpeedMaxMPH,WindSpeedAvgMPH,GustSpeedMaxMPH,PrecipitationSumIn
2013-12-1,71,49,35,48,43,35,100,82,41,30.33,30.21,4,0,0,0.01
2013-12-2,66,49,34,51,44,34,100,85,49,30.22,29.95,7,1,0,0.01
2013-12-3,56,48,32,50,32,23,92,57,28,29.95,29.83,10,2,0,0.00
2013-12-4,52,36,25,32,26,19,97,72,27,30.08,29.95,6,1,0,0.00
2013-12-5,50,33,22,30,25,21,98,77,35,30.15,30.07,5,1,0,0.00
2013-12-6,44,34,21,43,30,20,100,86,47,30.17,29.88,4,0,0,0.49
2013-12-7,47,36,26,39,29,21,100,79,37,30.25,29.90,10,1,0,0.01
2013-12-8,48,32,24,29,23,17,96,75,30,30.30,30.21,4,0,0,0.00
2013-12-9,50,32,20,28,23,18,96,74,33,30.41,30.29,5,1,0,0.01
2013-12-10,53,34,21,31,25,20,98,75,29,30.41,30.19,4,0,0,0.00
2013-12-11,57,37,24,34,29,23,100,78,40,30.24,30.16,3,0,0,0.00
2013-12-12,59,38,25,36,30,24,100,77,31,30.26,30.15,4,0,0,0.01
2013-12-13,63,40,26,39,32,25,100,79,34,30.32,30.22,4,0,0,0.00
2013-12-14,63,41,28,41,34,28,100,81,40,30.39,30.28,5,0,0,0.00
2013-12-15,61,41,26,40,35,26,100,83,42,30.36,30.23,3,0,0,0.01
2013-12-16,65,43,30,42,36,30,100,80,35,30.24,30.11,4,0,0,0.00
2013-12-17,63,43,31,45,36,31,100,82,39,30.18,30.02,2,0,0,0.01
2013-12-18,58,43,34,46,39,34,100,88,58,30.02,29.74,5,0,0,0.00
2013-12-19,62,50,36,37,28,16,89,46,21,29.94,29.72,6,2,0,0.00
2013-12-20,67,43,27,32,27,21,89,59,18,30.00,29.91,4,1,0,0.00
2013-12-21,67,48,36,46,40,31,99,78,41,30.07,29.95,5,1,0,0.00
2013-12-22,66,46,34,47,39,34,100,82,44,30.28,30.07,3,0,0,0.01
2013-12-23,66,46,30,45,38,30,100,79,40,30.38,30.27,3,0,0,0.00
2013-12-24,70,47,34,46,40,34,100,81,39,30.33,30.19,3,0,0,0.00
2013-12-25,37,1,36,37,-96,-100,99,3,99,30.30,30.18,0,-968,0,0.00
2013-12-26,-200,0,200,-100,-100,-100,0,0,100,30.25,30.14,0,-999,0,0.00
2013-12-27,-200,0,200,-100,-100,-100,0,0,100,30.22,30.11,0,-999,0,0.00
2013-12-28,-200,0,200,-100,-100,-100,0,0,100,30.14,30.01,0,-999,0,0.00
2013-12-29,64,17,34,32,-52,-100,86,22,24,30.18,30.06,5,-631,0,0.00
2013-12-30,34,11,27,31,-53,-100,98,34,86,30.24,30.16,2,-631,0,0.00
2013-12-31,62,16,35,41,-50,-100,99,29,41,30.26,30.14,2,-641,0,0.01